sensor_id;sensor_type;location;lat;lon;timestamp;P1;durP1;ratioP1;P2;durP2;ratioP2
27209;SDS011;14721;42.668;23.386;2024-02-26T00:01:48;26.77;;;12.73;;
27209;SDS011;14721;42.668;23.386;2024-02-26T00:04:14;35.70;;;17.93;;
27209;SDS011;14721;42.668;23.386;2024-02-26T00:06:39;39.20;;;17.90;;
27209;SDS011;14721;42.668;23.386;2024-02-26T00:09:08;24.97;;;12.43;;
27209;SDS011;14721;42.668;23.386;2024-02-26T00:11:37;22.93;;;11.47;;
27209;SDS011;14721;42.668;23.386;2024-02-26T00:14:03;26.17;;;13.23;;
27209;SDS011;14721;42.668;23.386;2024-02-26T00:16:29;25.17;;;14.03;;
27209;SDS011;14721;42.668;23.386;2024-02-26T00:18:55;26.60;;;14.43;;
27209;SDS011;14721;42.668;23.386;2024-02-26T00:21:20;34.83;;;17.97;;
27209;SDS011;14721;42.668;23.386;2024-02-26T00:23:46;44.23;;;19.37;;
27209;SDS011;14721;42.668;23.386;2024-02-26T00:26:11;48.13;;;24.03;;
27209;SDS011;14721;42.668;23.386;2024-02-26T00:28:37;57.33;;;23.47;;
27209;SDS011;14721;42.668;23.386;2024-02-26T00:31:03;48.70;;;22.63;;
27209;SDS011;14721;42.668;23.386;2024-02-26T00:33:28;49.77;;;22.23;;
27209;SDS011;14721;42.668;23.386;2024-02-26T00:35:54;42.77;;;21.40;;
27209;SDS011;14721;42.668;23.386;2024-02-26T00:38:19;41.03;;;20.10;;
27209;SDS011;14721;42.668;23.386;2024-02-26T00:40:45;44.10;;;19.93;;
27209;SDS011;14721;42.668;23.386;2024-02-26T00:43:11;47.03;;;22.37;;
27209;SDS011;14721;42.668;23.386;2024-02-26T00:45:37;52.63;;;23.67;;
27209;SDS011;14721;42.668;23.386;2024-02-26T00:48:06;44.73;;;20.53;;
27209;SDS011;14721;42.668;23.386;2024-02-26T00:50:32;53.77;;;21.57;;
27209;SDS011;14721;42.668;23.386;2024-02-26T00:52:58;40.60;;;20.67;;
27209;SDS011;14721;42.668;23.386;2024-02-26T00:55:31;43.33;;;20.00;;
27209;SDS011;14721;42.668;23.386;2024-02-26T00:57:57;50.37;;;22.23;;
27209;SDS011;14721;42.668;23.386;2024-02-26T01:00:22;43.77;;;21.20;;
27209;SDS011;14721;42.668;23.386;2024-02-26T01:02:48;52.00;;;22.87;;
27209;SDS011;14721;42.668;23.386;2024-02-26T01:05:14;41.67;;;20.40;;
27209;SDS011;14721;42.668;23.386;2024-02-26T01:07:41;48.83;;;22.03;;
27209;SDS011;14721;42.668;23.386;2024-02-26T01:10:07;38.60;;;17.43;;
27209;SDS011;14721;42.668;23.386;2024-02-26T01:12:33;40.00;;;21.13;;
27209;SDS011;14721;42.668;23.386;2024-02-26T01:15:05;39.63;;;19.37;;
27209;SDS011;14721;42.668;23.386;2024-02-26T01:17:31;34.83;;;17.43;;
27209;SDS011;14721;42.668;23.386;2024-02-26T01:19:58;35.37;;;13.87;;
27209;SDS011;14721;42.668;23.386;2024-02-26T01:22:24;40.40;;;19.87;;
27209;SDS011;14721;42.668;23.386;2024-02-26T01:24:49;35.23;;;18.27;;
27209;SDS011;14721;42.668;23.386;2024-02-26T01:27:15;33.77;;;16.67;;
27209;SDS011;14721;42.668;23.386;2024-02-26T01:29:41;34.80;;;15.87;;
27209;SDS011;14721;42.668;23.386;2024-02-26T01:32:06;44.60;;;17.60;;
27209;SDS011;14721;42.668;23.386;2024-02-26T01:34:32;42.30;;;20.90;;
27209;SDS011;14721;42.668;23.386;2024-02-26T01:37:00;47.27;;;21.63;;
27209;SDS011;14721;42.668;23.386;2024-02-26T01:39:25;60.80;;;27.90;;
27209;SDS011;14721;42.668;23.386;2024-02-26T01:41:52;56.43;;;26.87;;
27209;SDS011;14721;42.668;23.386;2024-02-26T01:44:18;48.43;;;24.50;;
27209;SDS011;14721;42.668;23.386;2024-02-26T01:46:44;52.80;;;26.90;;
27209;SDS011;14721;42.668;23.386;2024-02-26T01:49:11;54.47;;;27.37;;
27209;SDS011;14721;42.668;23.386;2024-02-26T01:51:38;48.90;;;25.73;;
27209;SDS011;14721;42.668;23.386;2024-02-26T01:54:06;49.20;;;23.63;;
27209;SDS011;14721;42.668;23.386;2024-02-26T01:56:33;50.93;;;23.47;;
27209;SDS011;14721;42.668;23.386;2024-02-26T01:59:00;44.77;;;24.33;;
27209;SDS011;14721;42.668;23.386;2024-02-26T02:01:27;46.23;;;22.47;;
27209;SDS011;14721;42.668;23.386;2024-02-26T02:03:56;45.60;;;23.50;;
27209;SDS011;14721;42.668;23.386;2024-02-26T02:06:24;46.40;;;23.40;;
27209;SDS011;14721;42.668;23.386;2024-02-26T02:09:08;47.97;;;23.63;;
27209;SDS011;14721;42.668;23.386;2024-02-26T02:11:33;46.17;;;22.77;;
27209;SDS011;14721;42.668;23.386;2024-02-26T02:13:59;48.20;;;24.97;;
27209;SDS011;14721;42.668;23.386;2024-02-26T02:16:25;46.57;;;22.33;;
27209;SDS011;14721;42.668;23.386;2024-02-26T02:18:50;46.87;;;22.87;;
27209;SDS011;14721;42.668;23.386;2024-02-26T02:21:16;44.87;;;22.00;;
27209;SDS011;14721;42.668;23.386;2024-02-26T02:23:44;43.53;;;22.10;;
27209;SDS011;14721;42.668;23.386;2024-02-26T02:26:11;42.13;;;20.40;;
27209;SDS011;14721;42.668;23.386;2024-02-26T02:28:40;43.07;;;20.30;;
27209;SDS011;14721;42.668;23.386;2024-02-26T02:31:06;41.83;;;20.37;;
27209;SDS011;14721;42.668;23.386;2024-02-26T02:33:32;38.30;;;18.17;;
27209;SDS011;14721;42.668;23.386;2024-02-26T02:35:59;41.90;;;16.87;;
27209;SDS011;14721;42.668;23.386;2024-02-26T02:38:25;36.43;;;17.73;;
27209;SDS011;14721;42.668;23.386;2024-02-26T02:40:54;34.67;;;16.40;;
27209;SDS011;14721;42.668;23.386;2024-02-26T02:43:19;31.43;;;15.60;;
27209;SDS011;14721;42.668;23.386;2024-02-26T02:45:45;30.43;;;16.73;;
27209;SDS011;14721;42.668;23.386;2024-02-26T02:48:11;33.73;;;16.77;;
27209;SDS011;14721;42.668;23.386;2024-02-26T02:50:37;37.87;;;16.50;;
27209;SDS011;14721;42.668;23.386;2024-02-26T02:53:03;32.83;;;16.17;;
27209;SDS011;14721;42.668;23.386;2024-02-26T02:55:29;35.60;;;15.30;;
27209;SDS011;14721;42.668;23.386;2024-02-26T02:57:55;29.37;;;15.27;;
27209;SDS011;14721;42.668;23.386;2024-02-26T03:00:22;25.33;;;12.47;;
27209;SDS011;14721;42.668;23.386;2024-02-26T03:02:48;27.40;;;14.10;;
27209;SDS011;14721;42.668;23.386;2024-02-26T03:05:14;29.87;;;14.83;;
27209;SDS011;14721;42.668;23.386;2024-02-26T03:07:40;32.23;;;13.40;;
27209;SDS011;14721;42.668;23.386;2024-02-26T03:10:05;24.27;;;12.33;;
27209;SDS011;14721;42.668;23.386;2024-02-26T03:12:33;24.23;;;13.00;;
27209;SDS011;14721;42.668;23.386;2024-02-26T03:14:59;27.63;;;13.50;;
27209;SDS011;14721;42.668;23.386;2024-02-26T03:17:29;31.07;;;14.53;;
27209;SDS011;14721;42.668;23.386;2024-02-26T03:19:55;27.33;;;14.43;;
27209;SDS011;14721;42.668;23.386;2024-02-26T03:22:20;29.60;;;14.73;;
27209;SDS011;14721;42.668;23.386;2024-02-26T03:24:47;31.23;;;15.37;;
27209;SDS011;14721;42.668;23.386;2024-02-26T03:27:13;29.67;;;16.57;;
27209;SDS011;14721;42.668;23.386;2024-02-26T03:29:40;28.47;;;16.27;;
27209;SDS011;14721;42.668;23.386;2024-02-26T03:32:06;33.30;;;16.23;;
27209;SDS011;14721;42.668;23.386;2024-02-26T03:34:35;29.17;;;17.00;;
27209;SDS011;14721;42.668;23.386;2024-02-26T03:37:02;34.50;;;17.37;;
27209;SDS011;14721;42.668;23.386;2024-02-26T03:39:28;39.80;;;19.90;;
27209;SDS011;14721;42.668;23.386;2024-02-26T03:41:54;40.90;;;19.30;;
27209;SDS011;14721;42.668;23.386;2024-02-26T03:44:19;41.53;;;19.97;;
27209;SDS011;14721;42.668;23.386;2024-02-26T03:46:45;41.00;;;19.43;;
27209;SDS011;14721;42.668;23.386;2024-02-26T03:49:10;39.53;;;20.07;;
27209;SDS011;14721;42.668;23.386;2024-02-26T03:51:36;38.07;;;20.57;;
27209;SDS011;14721;42.668;23.386;2024-02-26T03:54:02;40.23;;;20.60;;
27209;SDS011;14721;42.668;23.386;2024-02-26T03:56:28;37.97;;;19.43;;
27209;SDS011;14721;42.668;23.386;2024-02-26T03:58:55;42.80;;;21.47;;
27209;SDS011;14721;42.668;23.386;2024-02-26T04:01:22;40.73;;;20.53;;
27209;SDS011;14721;42.668;23.386;2024-02-26T04:03:47;40.10;;;20.20;;
27209;SDS011;14721;42.668;23.386;2024-02-26T04:06:13;37.43;;;19.10;;
27209;SDS011;14721;42.668;23.386;2024-02-26T04:08:44;36.90;;;20.13;;
27209;SDS011;14721;42.668;23.386;2024-02-26T04:11:10;36.77;;;19.80;;
27209;SDS011;14721;42.668;23.386;2024-02-26T04:13:35;36.17;;;19.73;;
27209;SDS011;14721;42.668;23.386;2024-02-26T04:16:05;44.10;;;20.07;;
27209;SDS011;14721;42.668;23.386;2024-02-26T04:18:32;37.60;;;19.97;;
27209;SDS011;14721;42.668;23.386;2024-02-26T04:20:58;40.40;;;19.53;;
27209;SDS011;14721;42.668;23.386;2024-02-26T04:23:24;40.60;;;19.97;;
27209;SDS011;14721;42.668;23.386;2024-02-26T04:25:50;42.97;;;20.73;;
27209;SDS011;14721;42.668;23.386;2024-02-26T04:28:18;41.07;;;22.07;;
27209;SDS011;14721;42.668;23.386;2024-02-26T04:30:45;42.10;;;19.90;;
27209;SDS011;14721;42.668;23.386;2024-02-26T04:33:12;39.37;;;20.33;;
27209;SDS011;14721;42.668;23.386;2024-02-26T04:35:37;41.47;;;19.23;;
27209;SDS011;14721;42.668;23.386;2024-02-26T04:38:03;43.70;;;19.70;;
27209;SDS011;14721;42.668;23.386;2024-02-26T04:40:30;42.60;;;20.50;;
27209;SDS011;14721;42.668;23.386;2024-02-26T04:42:56;43.67;;;20.17;;
27209;SDS011;14721;42.668;23.386;2024-02-26T04:45:22;45.93;;;23.07;;
27209;SDS011;14721;42.668;23.386;2024-02-26T04:47:47;42.27;;;20.73;;
27209;SDS011;14721;42.668;23.386;2024-02-26T04:50:13;42.70;;;22.23;;
27209;SDS011;14721;42.668;23.386;2024-02-26T04:52:39;45.03;;;21.43;;
27209;SDS011;14721;42.668;23.386;2024-02-26T04:55:05;40.53;;;19.70;;
27209;SDS011;14721;42.668;23.386;2024-02-26T04:57:30;42.03;;;19.53;;
27209;SDS011;14721;42.668;23.386;2024-02-26T04:59:56;38.77;;;20.10;;
27209;SDS011;14721;42.668;23.386;2024-02-26T05:02:23;36.83;;;17.63;;
27209;SDS011;14721;42.668;23.386;2024-02-26T05:04:49;36.57;;;19.50;;
27209;SDS011;14721;42.668;23.386;2024-02-26T05:07:15;36.70;;;19.13;;
27209;SDS011;14721;42.668;23.386;2024-02-26T05:09:42;36.07;;;19.70;;
27209;SDS011;14721;42.668;23.386;2024-02-26T05:12:09;39.27;;;20.13;;
27209;SDS011;14721;42.668;23.386;2024-02-26T05:14:37;45.30;;;21.77;;
27209;SDS011;14721;42.668;23.386;2024-02-26T05:17:02;41.77;;;21.47;;
27209;SDS011;14721;42.668;23.386;2024-02-26T05:19:28;41.77;;;21.53;;
27209;SDS011;14721;42.668;23.386;2024-02-26T05:21:54;46.77;;;21.93;;
27209;SDS011;14721;42.668;23.386;2024-02-26T05:24:22;43.90;;;21.37;;
27209;SDS011;14721;42.668;23.386;2024-02-26T05:26:48;43.80;;;20.33;;
27209;SDS011;14721;42.668;23.386;2024-02-26T05:29:13;40.27;;;19.53;;
27209;SDS011;14721;42.668;23.386;2024-02-26T05:31:39;43.97;;;18.77;;
27209;SDS011;14721;42.668;23.386;2024-02-26T05:34:06;36.50;;;19.53;;
27209;SDS011;14721;42.668;23.386;2024-02-26T05:36:35;40.27;;;19.50;;
27209;SDS011;14721;42.668;23.386;2024-02-26T05:39:03;35.93;;;19.30;;
27209;SDS011;14721;42.668;23.386;2024-02-26T05:41:29;42.50;;;20.97;;
27209;SDS011;14721;42.668;23.386;2024-02-26T05:43:55;36.63;;;21.30;;
27209;SDS011;14721;42.668;23.386;2024-02-26T05:46:21;34.87;;;18.97;;
27209;SDS011;14721;42.668;23.386;2024-02-26T05:48:48;33.40;;;18.83;;
27209;SDS011;14721;42.668;23.386;2024-02-26T05:51:14;37.97;;;19.43;;
27209;SDS011;14721;42.668;23.386;2024-02-26T05:53:41;38.43;;;19.30;;
27209;SDS011;14721;42.668;23.386;2024-02-26T05:56:07;40.47;;;20.77;;
27209;SDS011;14721;42.668;23.386;2024-02-26T05:58:32;36.27;;;18.90;;
27209;SDS011;14721;42.668;23.386;2024-02-26T06:00:58;42.57;;;19.40;;
27209;SDS011;14721;42.668;23.386;2024-02-26T06:03:25;39.53;;;19.20;;
27209;SDS011;14721;42.668;23.386;2024-02-26T06:05:50;36.13;;;19.13;;
27209;SDS011;14721;42.668;23.386;2024-02-26T06:08:16;40.13;;;21.63;;
27209;SDS011;14721;42.668;23.386;2024-02-26T06:10:41;33.50;;;18.53;;
27209;SDS011;14721;42.668;23.386;2024-02-26T06:13:09;36.00;;;18.87;;
27209;SDS011;14721;42.668;23.386;2024-02-26T06:15:34;35.07;;;19.10;;
27209;SDS011;14721;42.668;23.386;2024-02-26T06:18:00;36.43;;;18.63;;
27209;SDS011;14721;42.668;23.386;2024-02-26T06:20:28;35.80;;;19.27;;
27209;SDS011;14721;42.668;23.386;2024-02-26T06:22:54;42.77;;;19.47;;
27209;SDS011;14721;42.668;23.386;2024-02-26T06:25:19;38.20;;;19.17;;
27209;SDS011;14721;42.668;23.386;2024-02-26T06:27:45;37.77;;;19.60;;
27209;SDS011;14721;42.668;23.386;2024-02-26T06:30:10;35.77;;;20.60;;
27209;SDS011;14721;42.668;23.386;2024-02-26T06:32:37;45.43;;;21.17;;
27209;SDS011;14721;42.668;23.386;2024-02-26T06:35:02;41.37;;;23.53;;
27209;SDS011;14721;42.668;23.386;2024-02-26T06:37:33;45.20;;;25.63;;
27209;SDS011;14721;42.668;23.386;2024-02-26T06:39:59;43.10;;;22.90;;
27209;SDS011;14721;42.668;23.386;2024-02-26T06:42:25;36.90;;;19.93;;
27209;SDS011;14721;42.668;23.386;2024-02-26T06:44:50;46.13;;;21.97;;
27209;SDS011;14721;42.668;23.386;2024-02-26T06:47:16;43.23;;;21.73;;
27209;SDS011;14721;42.668;23.386;2024-02-26T06:49:41;39.03;;;21.47;;
27209;SDS011;14721;42.668;23.386;2024-02-26T06:52:13;39.20;;;20.93;;
27209;SDS011;14721;42.668;23.386;2024-02-26T06:54:39;42.83;;;20.90;;
27209;SDS011;14721;42.668;23.386;2024-02-26T06:57:04;37.77;;;21.33;;
27209;SDS011;14721;42.668;23.386;2024-02-26T06:59:30;39.60;;;20.00;;
27209;SDS011;14721;42.668;23.386;2024-02-26T07:01:56;40.53;;;20.83;;
27209;SDS011;14721;42.668;23.386;2024-02-26T07:04:22;33.23;;;18.90;;
27209;SDS011;14721;42.668;23.386;2024-02-26T07:06:47;43.77;;;22.53;;
27209;SDS011;14721;42.668;23.386;2024-02-26T07:09:13;51.43;;;25.90;;
27209;SDS011;14721;42.668;23.386;2024-02-26T07:11:39;44.50;;;24.43;;
27209;SDS011;14721;42.668;23.386;2024-02-26T07:14:07;32.90;;;19.50;;
27209;SDS011;14721;42.668;23.386;2024-02-26T07:16:37;42.07;;;21.23;;
27209;SDS011;14721;42.668;23.386;2024-02-26T07:19:03;42.13;;;21.27;;
27209;SDS011;14721;42.668;23.386;2024-02-26T07:21:28;41.57;;;19.53;;
27209;SDS011;14721;42.668;23.386;2024-02-26T07:23:54;35.60;;;19.50;;
27209;SDS011;14721;42.668;23.386;2024-02-26T07:26:19;38.37;;;18.63;;
27209;SDS011;14721;42.668;23.386;2024-02-26T07:28:45;31.93;;;15.63;;
27209;SDS011;14721;42.668;23.386;2024-02-26T07:31:11;32.67;;;14.47;;
27209;SDS011;14721;42.668;23.386;2024-02-26T07:33:37;32.17;;;16.23;;
27209;SDS011;14721;42.668;23.386;2024-02-26T07:36:03;33.93;;;16.30;;
27209;SDS011;14721;42.668;23.386;2024-02-26T07:38:29;32.97;;;16.40;;
27209;SDS011;14721;42.668;23.386;2024-02-26T07:40:54;36.03;;;14.80;;
27209;SDS011;14721;42.668;23.386;2024-02-26T07:43:22;29.90;;;15.50;;
27209;SDS011;14721;42.668;23.386;2024-02-26T07:45:47;36.03;;;17.23;;
27209;SDS011;14721;42.668;23.386;2024-02-26T07:48:13;33.97;;;16.83;;
27209;SDS011;14721;42.668;23.386;2024-02-26T07:50:39;34.17;;;17.37;;
27209;SDS011;14721;42.668;23.386;2024-02-26T07:53:05;35.93;;;17.83;;
27209;SDS011;14721;42.668;23.386;2024-02-26T07:55:31;46.73;;;23.03;;
27209;SDS011;14721;42.668;23.386;2024-02-26T07:57:56;42.77;;;20.77;;
27209;SDS011;14721;42.668;23.386;2024-02-26T08:00:22;36.20;;;20.57;;
27209;SDS011;14721;42.668;23.386;2024-02-26T08:02:47;34.90;;;19.03;;
27209;SDS011;14721;42.668;23.386;2024-02-26T08:05:13;40.73;;;21.37;;
27209;SDS011;14721;42.668;23.386;2024-02-26T08:07:42;42.70;;;20.87;;
27209;SDS011;14721;42.668;23.386;2024-02-26T08:10:08;42.27;;;20.30;;
27209;SDS011;14721;42.668;23.386;2024-02-26T08:12:33;46.83;;;21.20;;
27209;SDS011;14721;42.668;23.386;2024-02-26T08:14:59;39.40;;;17.80;;
27209;SDS011;14721;42.668;23.386;2024-02-26T08:17:25;28.97;;;12.80;;
27209;SDS011;14721;42.668;23.386;2024-02-26T08:19:52;27.83;;;12.17;;
27209;SDS011;14721;42.668;23.386;2024-02-26T08:22:17;23.07;;;12.90;;
27209;SDS011;14721;42.668;23.386;2024-02-26T08:24:46;24.27;;;13.07;;
27209;SDS011;14721;42.668;23.386;2024-02-26T08:27:11;34.23;;;15.67;;
27209;SDS011;14721;42.668;23.386;2024-02-26T08:29:37;28.63;;;14.27;;
27209;SDS011;14721;42.668;23.386;2024-02-26T08:32:02;20.93;;;11.13;;
27209;SDS011;14721;42.668;23.386;2024-02-26T08:34:28;24.30;;;11.63;;
27209;SDS011;14721;42.668;23.386;2024-02-26T08:36:54;20.07;;;8.53;;
27209;SDS011;14721;42.668;23.386;2024-02-26T08:39:19;22.90;;;11.00;;
27209;SDS011;14721;42.668;23.386;2024-02-26T08:41:45;32.83;;;13.97;;
27209;SDS011;14721;42.668;23.386;2024-02-26T08:44:30;26.27;;;12.20;;
27209;SDS011;14721;42.668;23.386;2024-02-26T08:46:55;19.53;;;10.40;;
27209;SDS011;14721;42.668;23.386;2024-02-26T08:49:20;20.50;;;11.13;;
27209;SDS011;14721;42.668;23.386;2024-02-26T08:51:48;15.63;;;7.63;;
27209;SDS011;14721;42.668;23.386;2024-02-26T08:54:17;15.67;;;8.00;;
27209;SDS011;14721;42.668;23.386;2024-02-26T08:56:45;13.40;;;7.43;;
27209;SDS011;14721;42.668;23.386;2024-02-26T08:59:10;15.90;;;6.13;;
27209;SDS011;14721;42.668;23.386;2024-02-26T09:01:36;12.53;;;5.43;;
27209;SDS011;14721;42.668;23.386;2024-02-26T09:04:01;14.20;;;7.27;;
27209;SDS011;14721;42.668;23.386;2024-02-26T09:06:28;20.15;;;7.15;;
27209;SDS011;14721;42.668;23.386;2024-02-26T09:08:54;10.57;;;5.93;;
27209;SDS011;14721;42.668;23.386;2024-02-26T09:11:20;12.65;;;5.63;;
27209;SDS011;14721;42.668;23.386;2024-02-26T09:13:45;10.77;;;6.20;;
27209;SDS011;14721;42.668;23.386;2024-02-26T09:16:11;13.80;;;5.70;;
27209;SDS011;14721;42.668;23.386;2024-02-26T09:18:36;12.20;;;5.78;;
27209;SDS011;14721;42.668;23.386;2024-02-26T09:21:05;9.75;;;5.00;;
27209;SDS011;14721;42.668;23.386;2024-02-26T09:23:31;9.13;;;5.40;;
27209;SDS011;14721;42.668;23.386;2024-02-26T09:25:57;9.87;;;4.93;;
27209;SDS011;14721;42.668;23.386;2024-02-26T09:28:23;9.57;;;5.30;;
27209;SDS011;14721;42.668;23.386;2024-02-26T09:30:48;8.63;;;4.85;;
27209;SDS011;14721;42.668;23.386;2024-02-26T09:33:15;12.00;;;5.70;;
27209;SDS011;14721;42.668;23.386;2024-02-26T09:35:45;8.57;;;5.32;;
27209;SDS011;14721;42.668;23.386;2024-02-26T09:38:10;9.27;;;5.15;;
27209;SDS011;14721;42.668;23.386;2024-02-26T09:40:36;10.63;;;4.90;;
27209;SDS011;14721;42.668;23.386;2024-02-26T09:43:02;9.00;;;4.70;;
27209;SDS011;14721;42.668;23.386;2024-02-26T09:45:30;8.85;;;4.68;;
27209;SDS011;14721;42.668;23.386;2024-02-26T09:47:58;6.85;;;3.80;;
27209;SDS011;14721;42.668;23.386;2024-02-26T09:50:23;12.85;;;5.30;;
27209;SDS011;14721;42.668;23.386;2024-02-26T09:52:49;6.80;;;4.82;;
27209;SDS011;14721;42.668;23.386;2024-02-26T09:55:16;10.38;;;4.80;;
27209;SDS011;14721;42.668;23.386;2024-02-26T09:57:44;8.02;;;4.57;;
27209;SDS011;14721;42.668;23.386;2024-02-26T10:00:14;7.03;;;4.13;;
27209;SDS011;14721;42.668;23.386;2024-02-26T10:02:43;9.35;;;5.25;;
27209;SDS011;14721;42.668;23.386;2024-02-26T10:05:12;8.98;;;4.63;;
27209;SDS011;14721;42.668;23.386;2024-02-26T10:07:42;8.13;;;4.68;;
27209;SDS011;14721;42.668;23.386;2024-02-26T10:10:09;7.82;;;4.35;;
27209;SDS011;14721;42.668;23.386;2024-02-26T10:12:34;8.13;;;4.28;;
27209;SDS011;14721;42.668;23.386;2024-02-26T10:15:00;9.93;;;4.95;;
27209;SDS011;14721;42.668;23.386;2024-02-26T10:17:26;10.00;;;4.72;;
27209;SDS011;14721;42.668;23.386;2024-02-26T10:19:52;9.68;;;4.28;;
27209;SDS011;14721;42.668;23.386;2024-02-26T10:22:21;6.85;;;4.40;;
27209;SDS011;14721;42.668;23.386;2024-02-26T10:24:47;7.18;;;4.40;;
27209;SDS011;14721;42.668;23.386;2024-02-26T10:27:13;8.52;;;4.88;;
27209;SDS011;14721;42.668;23.386;2024-02-26T10:29:40;8.70;;;4.25;;
27209;SDS011;14721;42.668;23.386;2024-02-26T10:32:08;7.07;;;4.70;;
27209;SDS011;14721;42.668;23.386;2024-02-26T10:34:34;10.68;;;5.13;;
27209;SDS011;14721;42.668;23.386;2024-02-26T10:37:03;11.65;;;5.20;;
27209;SDS011;14721;42.668;23.386;2024-02-26T10:39:30;5.72;;;4.05;;
27209;SDS011;14721;42.668;23.386;2024-02-26T10:41:55;10.27;;;4.38;;
27209;SDS011;14721;42.668;23.386;2024-02-26T10:44:21;8.60;;;4.63;;
27209;SDS011;14721;42.668;23.386;2024-02-26T10:46:47;11.27;;;5.60;;
27209;SDS011;14721;42.668;23.386;2024-02-26T10:49:16;8.38;;;5.03;;
27209;SDS011;14721;42.668;23.386;2024-02-26T10:51:45;11.43;;;4.20;;
27209;SDS011;14721;42.668;23.386;2024-02-26T10:54:17;7.43;;;4.65;;
27209;SDS011;14721;42.668;23.386;2024-02-26T10:56:44;6.93;;;4.70;;
27209;SDS011;14721;42.668;23.386;2024-02-26T10:59:13;8.90;;;4.43;;
27209;SDS011;14721;42.668;23.386;2024-02-26T11:01:45;8.18;;;4.20;;
27209;SDS011;14721;42.668;23.386;2024-02-26T11:04:13;6.82;;;4.28;;
27209;SDS011;14721;42.668;23.386;2024-02-26T11:06:41;8.65;;;3.90;;
27209;SDS011;14721;42.668;23.386;2024-02-26T11:09:08;7.93;;;3.70;;
27209;SDS011;14721;42.668;23.386;2024-02-26T11:11:38;6.32;;;3.17;;
27209;SDS011;14721;42.668;23.386;2024-02-26T11:14:05;9.57;;;4.55;;
27209;SDS011;14721;42.668;23.386;2024-02-26T11:16:34;6.65;;;4.00;;
27209;SDS011;14721;42.668;23.386;2024-02-26T11:22:11;5.97;;;3.50;;
27209;SDS011;14721;42.668;23.386;2024-02-26T11:24:36;6.97;;;3.53;;
27209;SDS011;14721;42.668;23.386;2024-02-26T11:27:06;8.73;;;4.00;;
27209;SDS011;14721;42.668;23.386;2024-02-26T11:29:42;9.85;;;4.22;;
27209;SDS011;14721;42.668;23.386;2024-02-26T11:32:12;9.98;;;4.30;;
27209;SDS011;14721;42.668;23.386;2024-02-26T11:34:40;12.82;;;4.95;;
27209;SDS011;14721;42.668;23.386;2024-02-26T11:37:11;6.00;;;3.90;;
27209;SDS011;14721;42.668;23.386;2024-02-26T11:39:37;8.13;;;4.25;;
27209;SDS011;14721;42.668;23.386;2024-02-26T11:42:08;7.22;;;3.70;;
27209;SDS011;14721;42.668;23.386;2024-02-26T11:44:37;8.88;;;4.82;;
27209;SDS011;14721;42.668;23.386;2024-02-26T11:47:12;5.43;;;3.58;;
27209;SDS011;14721;42.668;23.386;2024-02-26T11:49:47;6.53;;;3.88;;
27209;SDS011;14721;42.668;23.386;2024-02-26T11:52:15;9.63;;;4.05;;
27209;SDS011;14721;42.668;23.386;2024-02-26T11:57:25;5.93;;;4.20;;
27209;SDS011;14721;42.668;23.386;2024-02-26T12:00:12;6.18;;;4.03;;
27209;SDS011;14721;42.668;23.386;2024-02-26T12:05:14;6.00;;;3.55;;
27209;SDS011;14721;42.668;23.386;2024-02-26T12:07:49;8.75;;;3.80;;
27209;SDS011;14721;42.668;23.386;2024-02-26T12:10:23;7.97;;;4.05;;
27209;SDS011;14721;42.668;23.386;2024-02-26T12:13:12;6.65;;;3.97;;
27209;SDS011;14721;42.668;23.386;2024-02-26T12:15:39;7.40;;;3.88;;
27209;SDS011;14721;42.668;23.386;2024-02-26T12:18:08;7.30;;;3.53;;
27209;SDS011;14721;42.668;23.386;2024-02-26T12:20:38;6.45;;;3.15;;
27209;SDS011;14721;42.668;23.386;2024-02-26T12:23:04;7.28;;;3.25;;
27209;SDS011;14721;42.668;23.386;2024-02-26T12:25:30;8.02;;;3.33;;
27209;SDS011;14721;42.668;23.386;2024-02-26T12:27:56;5.53;;;3.47;;
27209;SDS011;14721;42.668;23.386;2024-02-26T12:30:22;6.85;;;2.97;;
27209;SDS011;14721;42.668;23.386;2024-02-26T12:32:49;3.88;;;2.28;;
27209;SDS011;14721;42.668;23.386;2024-02-26T12:35:16;5.43;;;3.15;;
27209;SDS011;14721;42.668;23.386;2024-02-26T12:37:45;4.47;;;2.70;;
27209;SDS011;14721;42.668;23.386;2024-02-26T12:40:11;5.20;;;3.00;;
27209;SDS011;14721;42.668;23.386;2024-02-26T12:42:40;4.50;;;2.58;;
27209;SDS011;14721;42.668;23.386;2024-02-26T12:45:07;7.80;;;3.10;;
27209;SDS011;14721;42.668;23.386;2024-02-26T12:47:40;7.88;;;2.83;;
27209;SDS011;14721;42.668;23.386;2024-02-26T12:50:07;6.78;;;3.10;;
27209;SDS011;14721;42.668;23.386;2024-02-26T12:52:34;6.93;;;2.90;;
27209;SDS011;14721;42.668;23.386;2024-02-26T12:55:04;5.20;;;2.60;;
27209;SDS011;14721;42.668;23.386;2024-02-26T12:57:35;4.70;;;3.13;;
27209;SDS011;14721;42.668;23.386;2024-02-26T13:00:07;7.30;;;3.35;;
27209;SDS011;14721;42.668;23.386;2024-02-26T13:02:35;6.80;;;3.10;;
27209;SDS011;14721;42.668;23.386;2024-02-26T13:05:03;6.18;;;3.65;;
27209;SDS011;14721;42.668;23.386;2024-02-26T13:07:31;7.13;;;3.22;;
27209;SDS011;14721;42.668;23.386;2024-02-26T13:09:56;9.98;;;4.55;;
27209;SDS011;14721;42.668;23.386;2024-02-26T13:12:22;5.78;;;2.92;;
27209;SDS011;14721;42.668;23.386;2024-02-26T13:14:58;5.38;;;2.80;;
27209;SDS011;14721;42.668;23.386;2024-02-26T13:17:26;8.57;;;3.53;;
27209;SDS011;14721;42.668;23.386;2024-02-26T13:19:53;7.07;;;3.17;;
27209;SDS011;14721;42.668;23.386;2024-02-26T13:22:22;5.50;;;3.35;;
27209;SDS011;14721;42.668;23.386;2024-02-26T13:24:59;6.45;;;2.58;;
27209;SDS011;14721;42.668;23.386;2024-02-26T13:27:25;6.82;;;3.40;;
27209;SDS011;14721;42.668;23.386;2024-02-26T13:30:09;7.10;;;3.30;;
27209;SDS011;14721;42.668;23.386;2024-02-26T13:32:37;9.82;;;3.30;;
27209;SDS011;14721;42.668;23.386;2024-02-26T13:35:07;10.32;;;3.78;;
27209;SDS011;14721;42.668;23.386;2024-02-26T13:37:35;7.30;;;3.22;;
27209;SDS011;14721;42.668;23.386;2024-02-26T13:40:04;6.53;;;3.03;;
27209;SDS011;14721;42.668;23.386;2024-02-26T13:42:34;9.90;;;4.45;;
27209;SDS011;14721;42.668;23.386;2024-02-26T13:45:00;7.18;;;3.58;;
27209;SDS011;14721;42.668;23.386;2024-02-26T13:47:26;7.68;;;3.83;;
27209;SDS011;14721;42.668;23.386;2024-02-26T13:49:52;7.22;;;3.35;;
27209;SDS011;14721;42.668;23.386;2024-02-26T13:52:20;5.13;;;2.97;;
27209;SDS011;14721;42.668;23.386;2024-02-26T13:54:47;5.25;;;3.22;;
27209;SDS011;14721;42.668;23.386;2024-02-26T13:57:12;5.68;;;2.72;;
27209;SDS011;14721;42.668;23.386;2024-02-26T13:59:39;7.05;;;2.97;;
27209;SDS011;14721;42.668;23.386;2024-02-26T14:02:07;7.18;;;3.28;;
27209;SDS011;14721;42.668;23.386;2024-02-26T14:04:36;12.77;;;4.13;;
27209;SDS011;14721;42.668;23.386;2024-02-26T14:07:02;6.32;;;3.00;;
27209;SDS011;14721;42.668;23.386;2024-02-26T14:09:28;8.50;;;3.65;;
27209;SDS011;14721;42.668;23.386;2024-02-26T14:11:54;5.20;;;2.60;;
27209;SDS011;14721;42.668;23.386;2024-02-26T14:14:19;5.32;;;2.65;;
27209;SDS011;14721;42.668;23.386;2024-02-26T14:16:45;7.45;;;2.55;;
27209;SDS011;14721;42.668;23.386;2024-02-26T14:19:10;4.13;;;2.10;;
27209;SDS011;14721;42.668;23.386;2024-02-26T14:21:36;6.47;;;2.17;;
27209;SDS011;14721;42.668;23.386;2024-02-26T14:24:02;9.23;;;2.13;;
27209;SDS011;14721;42.668;23.386;2024-02-26T14:26:28;6.10;;;2.53;;